Valley Peak, Santa Cruz Island Reserve, California Weather observations

Data are for 10 minute period ending at time listed.
 Day   Time   Solar   Ave.   Ave.  Ave.  Vector  Max.   Baro.   Total    
  of    of     Rad.   Air    Rel.  Wind   Wind   Wind  Press.  Precip.   
Year   Day            Temp.  Hum.  Speed  Dir.   Gust                    
2017   (PST)  Kw/m2    F      %     mph   deg.    mph    mb.     in.     
-------------------------------------------------------------------------
  21    0:20   0.00   44.6    84   17.5   288    26.4   953.8    0.00 
  21    0:30   0.00   44.8    80   18.0   293    30.7   953.8    0.00 
  21    0:40   0.00   45.1    76   20.2   300    32.7   953.7    0.00 
  21    0:50   0.00   45.1    74   19.9   297    31.0   953.9    0.00 
  21    1:00   0.00   45.0    75   18.3   299    32.2   954.1    0.00 
  21    1:10   0.00   44.9    77   19.6   294    28.8   954.2    0.00 
  21    1:20   0.00   45.0    77   18.7   297    28.8   954.4    0.00 
  21    1:30   0.00   45.1    78   16.0   293    24.8   954.6    0.00 
  21    1:40   0.00   45.1    79   17.4   293    28.1   954.6    0.00 
  21    1:50   0.00   44.9    81   14.7   295    30.0   954.7    0.00 
  21    2:00   0.00   45.3    79   19.3   301    28.7   954.8    0.00 
  21    2:10   0.00   45.6    79   16.4   302    25.3   954.8    0.00 
  21    2:20   0.00   45.6    81   16.9   301    27.6   955.1    0.00 
  21    2:30   0.00   44.3    82   18.1   306    30.0   955.1    0.01 
  21    2:40   0.00   44.6    83   18.0   301    28.1   955.4    0.00 
  21    2:50   0.00   44.7    85   16.2   288    24.0   955.6    0.00 
  21    3:00   0.00   44.2    87   17.9   297    27.5   955.6    0.00 
  21    3:10   0.00   44.5    84   17.9   304    30.7   955.8    0.00 
  21    3:20   0.00   44.9    83   17.1   301    28.0   956.1    0.00 
  21    3:30   0.00   45.1    81   18.0   304    30.2   956.3    0.00 
  21    3:40   0.00   45.1    82   14.8   307    30.8   956.6    0.00 
  21    3:50   0.00   45.3    81   16.9   306    27.2   956.7    0.00 
  21    4:00   0.00   45.6    79   15.4   304    23.8   956.7    0.00 
  21    4:10   0.00   45.4    82   17.0   336    26.5   956.8    0.00 
  21    4:20   0.00   44.0    88   17.5   339    28.9   956.8    0.00 
  21    4:30   0.00   43.6    85   14.1   328    23.8   956.8    0.00 
  21    4:40   0.00   44.2    84   16.4   320    22.8   956.9    0.00 
  21    4:50   0.00   43.8    90   14.1   348    20.9   957.0    0.01 
  21    5:00   0.00   43.3    92   13.3   329    21.7   957.1    0.00 
  21    5:10   0.00   43.5    91   12.2   340    21.0   957.5    0.00 
  21    5:20   0.00   43.7    91   13.2   334    20.6   957.9    0.00 
  21    5:30   0.00   44.1    90   11.8   322    21.7   958.1    0.00 
  21    5:40   0.00   44.1    89   12.3   336    21.8   958.2    0.00 
  21    5:50   0.00   44.3    88   12.2   335    19.5   958.3    0.00 
  21    6:00   0.00   44.4    89   10.0   333    16.8   958.5    0.00 
  21    6:10   0.00   44.5    89   10.1   328    17.9   958.8    0.00 
  21    6:20   0.00   44.6    90   12.3   337    25.6   959.0    0.01 
  21    6:30   0.00   44.6    86   12.8   319    22.4   959.4    0.01 
  21    6:40   0.00   44.2    93   12.0   340    22.9   959.6    0.00 
  21    6:50   0.00   44.7    92   13.4   332    20.8   960.0    0.00 
  21    7:00   0.00   44.7    92   10.8   340    16.2   960.1    0.00 
  21    7:10   0.00   44.6    92   13.1   340    21.3   960.1    0.00 
  21    7:20   0.03   44.8    90   13.7   321    20.5   960.3    0.00 
  21    7:30   0.07   45.2    90    9.4   334    15.1   960.5    0.00 
  21    7:40   0.05   45.3    91    9.7   329    13.5   960.9    0.00 
  21    7:50   0.11   45.5    89   11.2   330    17.2   960.9    0.00 
  21    8:00   0.12   45.5    87   12.1   316    20.8   961.0    0.00 
  21    8:10   0.14   45.5    85   12.1   320    19.4   961.2    0.00 
  21    8:20   0.17   45.7    83   14.2   317    22.3   961.4    0.00 
  21    8:30   0.20   46.0    81   14.2   319    24.4   961.5    0.00 
  21    8:40   0.23   46.4    80   12.9   325    23.9   961.7    0.00 
  21    8:50   0.26   46.6    78   12.6   316    19.1   962.0    0.00 
  21    9:00   0.29   47.0    77   11.6   308    19.6   962.5    0.00 
  21    9:10   0.32   47.4    75   11.3   311    19.6   962.8    0.00 
  21    9:20   0.35   47.6    74   12.7   312    21.8   962.9    0.00 
  21    9:30   0.41   47.9    74   13.5   315    23.2   963.1    0.00 
  21    9:40   0.44   48.7    74    9.9   305    23.7   963.4    0.00 
  21    9:50   0.48   49.3    73   10.2   292    18.9   963.6    0.00 
  21   10:00   0.49   49.7    73   10.3   300    15.9   963.7    0.00 
  21   10:10   0.42   50.2    73    7.0   315    12.0   963.7    0.00 
  21   10:20   0.45   49.8    72   10.0   337    16.4   963.8    0.00 
  21   10:30   0.51   49.8    70   11.9   317    19.9   964.1    0.00 
  21   10:40   0.53   50.7    70    8.2   318    14.4   964.3    0.00 
  21   10:50   0.54   51.2    70    8.1   337    14.9   964.3    0.00 
  21   11:00   0.53   51.5    68    7.7   308    18.3   964.4    0.00 
  21   11:10   0.46   51.0    68   10.1   319    16.3   964.4    0.00 
  21   11:20   0.54   51.3    68    9.7   295    15.9   964.6    0.00 
  21   11:30   0.57   52.1    66   10.4   308    16.7   964.7    0.00 
  21   11:40   0.48   52.1    65   10.6   285    17.6   964.6    0.00 
  21   11:50   0.44   52.6    64    7.8   302    14.2   964.5    0.00 
  21   12:00   0.55   52.6    62    7.7   307    14.0   964.3    0.00 
  21   12:10   0.59   52.8    62    6.6   321    12.3   964.3    0.00 
  21   12:20   0.58   53.6    60    7.4   313    11.5   964.3    0.00 
  21   12:30   0.57   53.7    61    6.8   324    11.2   964.0    0.00 
  21   12:40   0.60   53.5    60    7.5   335    12.4   963.8    0.00 
  21   12:50   0.56   53.3    60    9.7   328    17.0   963.8    0.00 
  21   13:00   0.44   52.5    63    8.3   325    16.1   964.0    0.00 
  21   13:10   0.50   52.3    62    9.5   322    15.0   964.0    0.00 
  21   13:20   0.33   52.6    61    7.3   310    13.6   964.1    0.00 
  21   13:30   0.27   52.4    64    5.4   279    11.0   964.0    0.00 
  21   13:40   0.26   52.4    70    9.9   253    15.3   964.2    0.00 
  21   13:50   0.26   52.1    72    9.4   252    13.2   964.5    0.00 
  21   14:00   0.30   52.2    72    9.3   251    17.5   964.6    0.00 
  21   14:10   0.32   52.6    72    6.8   256    11.5   964.4    0.00 
  21   14:20   0.28   52.4    72   10.6   244    17.2   964.6    0.00 
  21   14:30   0.21   51.8    72    8.5   253    15.6   964.7    0.00 
  21   14:40   0.22   51.4    72   10.3   252    14.8   964.6    0.00 
  21   14:50   0.43   52.4    70   10.4   244    15.9   964.6    0.00 
  21   15:00   0.23   52.1    68   12.4   251    18.6   964.9    0.00 
  21   15:10   0.13   50.7    70   10.4   251    15.3   964.9    0.00 
  21   15:20   0.10   50.3    69    8.4   254    13.2   964.6    0.00 
  21   15:30   0.10   50.0    71    9.6   247    14.9   964.5    0.00 
  21   15:40   0.07   49.5    70   11.4   254    14.0   964.5    0.00 
  21   15:50   0.05   49.2    68   12.2   262    17.0   964.8    0.00 
  21   16:00   0.04   49.0    71   12.2   256    17.2   965.0    0.00 
  21   16:10   0.04   48.9    73    9.8   253    14.5   965.0    0.00 
  21   16:20   0.03   48.8    74    9.7   240    12.5   964.7    0.00 
  21   16:30   0.02   48.6    76    7.7   234    10.6   964.8    0.00 
  21   16:40   0.01   48.4    77    7.6   227     9.3   965.0    0.00 
  21   16:50   0.01   48.2    79    9.9   228    12.2   964.9    0.00 
  21   17:00   0.00   48.1    81   11.3   228    13.4   965.0    0.00 
  21   17:10   0.00   48.0    83   12.5   225    14.7   964.9    0.00 
  21   17:20   0.00   47.8    84   12.4   222    16.3   965.0    0.00 
  21   17:30   0.00   47.7    85   12.1   232    15.1   965.4    0.00 
  21   17:40   0.00   47.6    84   10.7   231    13.9   965.7    0.00 
  21   17:50   0.00   47.5    85   13.4   235    17.0   966.0    0.00 
  21   18:00   0.00   47.5    86   11.2   234    15.0   966.2    0.00 
  21   18:10   0.00   47.6    87   10.9   228    13.4   966.3    0.00 
  21   18:20   0.00   47.5    87    9.8   222    12.4   966.4    0.00 
  21   18:30   0.00   47.5    88   10.1   220    13.0   966.7    0.00 
  21   18:40   0.00   47.5    88    9.3   225    12.1   966.9    0.00 
  21   18:50   0.00   47.5    88    7.6   221     9.6   966.8    0.00 
  21   19:00   0.00   47.4    88    9.8   224    12.3   966.8    0.00 
  21   19:10   0.00   47.4    88    9.5   224    12.1   967.0    0.00 
  21   19:20   0.00   47.4    89   10.6   233    12.2   967.3    0.00 
  21   19:30   0.00   47.4    88   11.2   233    14.9   967.8    0.00 
  21   19:40   0.00   47.4    88    9.8   233    12.6   967.7    0.00 
  21   19:50   0.00   47.2    88    8.5   224    11.0   967.5    0.00 
  21   20:00   0.00   47.2    88    6.7   216     8.6   967.4    0.00 
  21   20:10   0.00   47.2    87    8.0   199     9.4   967.3    0.00 
  21   20:20   0.00   47.3    87    8.2   176     9.9   967.3    0.00 
  21   20:30   0.00   47.4    88    5.6   157     9.4   967.0    0.00 
  21   20:40   0.00   47.1    89    5.3   145     9.4   966.5    0.00 
  21   20:50   0.00   46.8    90    4.9   140     9.2   966.7    0.00 
  21   21:00   0.00   47.0    90    4.0   143     8.0   967.2    0.00 
  21   21:10   0.00   47.2    90    4.5   143     8.8   967.4    0.00 
  21   21:20   0.00   47.3    90    3.6   151     6.6   967.6    0.00 
  21   21:30   0.00   47.3    90    4.0   148     8.8   967.6    0.00 
  21   21:40   0.00   47.4    90    6.4   160    11.6   967.7    0.00 
  21   21:50   0.00   47.4    91    4.3   158    11.5   967.6    0.00 
  21   22:00   0.00   47.4    90    5.7   158    13.2   967.7    0.00 
  21   22:10   0.00   47.6    88   10.6   168    15.9   968.1    0.00 
  21   22:20   0.00   47.8    88    7.4   160    16.6   968.3    0.00 
  21   22:30   0.00   48.0    88    8.3   164    16.7   968.6    0.00 
  21   22:40   0.00   48.2    88    8.0   157    17.2   968.4    0.00 
  21   22:50   0.00   48.2    88    5.1   157    11.0   968.1    0.00 
  21   23:00   0.00   48.2    89    4.1   142    10.7   967.8    0.00 
  21   23:10   0.00   47.8    91    5.4   136    13.5   967.6    0.01 
  21   23:20   0.00   47.5    92    8.0   125    14.4   967.6    0.00 
  21   23:30   0.00   47.6    93   10.1   121    16.1   967.9    0.00 
  21   23:40   0.00   47.6    93   10.3   122    15.3   968.0    0.00 
  21   23:50   0.00   47.6    94    7.6   132    15.9   968.2    0.00 
  22    0:00   0.00   47.8    95    5.6   139    11.5   968.1    0.00 
  22    0:10   0.00   47.8    95    8.6   126    16.3   968.0    0.01 

Return to Valley Peak, Santa Cruz Island Reserve graphs page.


Western Regional Climate Center,wrcc@dri.edu